createdAt,value
2023-01-29T00:00:03.982Z,2.1
2023-01-29T00:06:07.915Z,2.1
2023-01-29T00:08:12.576Z,2.2
2023-01-29T00:10:14.038Z,2.2
2023-01-29T00:12:15.254Z,2.2
2023-01-29T00:14:16.559Z,2.1
2023-01-29T00:20:20.692Z,2.1
2023-01-29T00:22:25.357Z,2.1
2023-01-29T00:24:26.736Z,2.1
2023-01-29T00:26:27.980Z,2.1
2023-01-29T00:27:30.224Z,2
2023-01-29T00:29:31.473Z,2.1
2023-01-29T00:31:32.851Z,2
2023-01-29T00:33:34.185Z,2
2023-01-29T00:37:40.097Z,2
2023-01-29T00:39:47.918Z,2
2023-01-29T00:41:42.635Z,2
2023-01-29T00:45:45.184Z,2.1
2023-01-29T00:47:46.508Z,2
2023-01-29T00:49:51.086Z,2
2023-01-29T00:51:52.393Z,2
2023-01-29T00:53:53.737Z,2.1
2023-01-29T00:55:55.048Z,2.1
2023-01-29T00:57:56.425Z,2.1
2023-01-29T00:59:57.692Z,2.1
2023-01-29T01:01:59.039Z,2.1
2023-01-29T01:04:03.561Z,2
2023-01-29T01:06:04.835Z,2
2023-01-29T01:08:06.151Z,2
2023-01-29T01:12:08.658Z,2.1
2023-01-29T01:14:09.941Z,2.2
2023-01-29T01:16:11.390Z,2.1
2023-01-29T01:20:17.646Z,2.1
2023-01-29T01:23:20.834Z,2.1
2023-01-29T01:25:22.175Z,2.1
2023-01-29T01:29:24.791Z,2.1
2023-01-29T01:35:31.978Z,2.2
2023-01-29T01:37:33.319Z,2.2
2023-01-29T01:39:34.601Z,2.2
2023-01-29T01:41:35.869Z,2.2
2023-01-29T01:43:37.170Z,2.2
2023-01-29T01:45:41.929Z,2.2
2023-01-29T01:47:43.206Z,2.2
2023-01-29T01:49:44.521Z,2.2
2023-01-29T01:51:46.002Z,2.2
2023-01-29T01:59:54.572Z,2.1
2023-01-29T02:12:02.464Z,2.1
2023-01-29T02:14:07.047Z,2.1
2023-01-29T02:16:08.378Z,2.1
2023-01-29T02:18:09.724Z,2
2023-01-29T02:20:38.758Z,2
2023-01-29T02:22:40.124Z,2
2023-01-29T02:26:46.071Z,2
2023-01-29T02:28:47.414Z,2
2023-01-29T02:30:48.777Z,2
2023-01-29T02:32:50.105Z,2
2023-01-29T02:34:51.442Z,2
2023-01-29T02:36:52.755Z,1.9
2023-01-29T02:38:54.012Z,2
2023-01-29T02:40:58.625Z,1.9
2023-01-29T02:42:59.997Z,1.9
2023-01-29T02:45:01.360Z,1.9
2023-01-29T02:47:02.680Z,1.9
2023-01-29T02:49:03.914Z,1.9
2023-01-29T02:51:05.182Z,1.9
2023-01-29T02:53:06.475Z,2
2023-01-29T02:55:11.100Z,1.9
2023-01-29T02:57:12.363Z,2
2023-01-29T02:59:13.642Z,2
2023-01-29T03:01:14.959Z,2
2023-01-29T03:03:16.213Z,1.9
2023-01-29T03:07:18.922Z,1.9
2023-01-29T03:09:23.637Z,1.9
2023-01-29T03:11:24.896Z,1.9
2023-01-29T03:13:26.249Z,2
2023-01-29T03:20:32.461Z,2
2023-01-29T03:22:37.144Z,2
2023-01-29T03:24:38.526Z,1.9
2023-01-29T03:26:39.832Z,1.9
2023-01-29T03:30:42.463Z,1.9
2023-01-29T03:32:43.714Z,1.9
2023-01-29T03:34:44.980Z,2
2023-01-29T03:40:52.218Z,1.9
2023-01-29T03:42:53.549Z,1.9
2023-01-29T03:44:54.862Z,1.9
2023-01-29T03:46:56.195Z,1.9
2023-01-29T03:51:02.218Z,1.9
2023-01-29T03:55:04.780Z,1.9
2023-01-29T03:57:06.140Z,1.9
2023-01-29T04:01:08.720Z,1.8
2023-01-29T04:05:14.544Z,1.8
2023-01-29T04:07:15.768Z,1.8
2023-01-29T04:09:17.102Z,1.8
2023-01-29T04:10:19.372Z,1.8
2023-01-29T04:12:20.664Z,1.8
2023-01-29T04:14:21.912Z,1.8
2023-01-29T04:16:23.211Z,1.8
2023-01-29T04:18:27.787Z,1.8
2023-01-29T04:20:29.079Z,1.7
2023-01-29T04:22:30.418Z,1.7
2023-01-29T04:24:31.729Z,1.7
2023-01-29T04:26:32.963Z,1.7
2023-01-29T04:28:34.228Z,1.7
2023-01-29T04:30:35.651Z,1.7
2023-01-29T04:36:42.702Z,1.7
2023-01-29T04:38:43.958Z,1.7
2023-01-29T04:40:45.331Z,1.7
2023-01-29T04:42:46.609Z,1.7
2023-01-29T04:44:47.863Z,1.7
2023-01-29T04:46:52.451Z,1.7
2023-01-29T04:50:54.982Z,1.7
2023-01-29T04:52:56.265Z,1.7
2023-01-29T04:56:58.898Z,1.7
2023-01-29T04:59:00.198Z,1.6
2023-01-29T05:01:04.821Z,1.6
2023-01-29T05:03:07.853Z,1.7
2023-01-29T05:05:09.095Z,1.6
2023-01-29T05:06:11.390Z,1.6
2023-01-29T05:08:12.778Z,1.6
2023-01-29T05:10:14.183Z,1.6
2023-01-29T05:12:15.349Z,1.6
2023-01-29T05:14:20.100Z,1.6
2023-01-29T05:16:21.475Z,1.6
2023-01-29T05:18:22.657Z,1.6
2023-01-29T05:20:23.964Z,1.6
2023-01-29T05:22:25.311Z,1.6
2023-01-29T05:24:26.617Z,1.6
2023-01-29T05:28:32.620Z,1.6
2023-01-29T05:30:34.032Z,1.5
2023-01-29T05:32:35.221Z,1.6
2023-01-29T05:34:36.486Z,1.6
2023-01-29T05:36:37.847Z,1.6
2023-01-29T05:46:47.840Z,1.7
2023-01-29T05:48:48.989Z,1.7
2023-01-29T05:50:50.272Z,1.7
2023-01-29T05:52:51.628Z,1.6
2023-01-29T05:54:52.852Z,1.6
2023-01-29T05:56:57.482Z,1.6
2023-01-29T05:58:58.848Z,1.6
2023-01-29T06:01:00.184Z,1.6
2023-01-29T06:03:23.136Z,1.6
2023-01-29T06:05:24.412Z,1.6
2023-01-29T06:07:25.646Z,1.6
2023-01-29T06:09:30.333Z,1.6
2023-01-29T06:11:31.630Z,1.6
2023-01-29T06:13:33.007Z,1.6
2023-01-29T06:15:34.340Z,1.6
2023-01-29T06:17:35.760Z,1.6
2023-01-29T06:19:36.973Z,1.6
2023-01-29T06:21:38.259Z,1.6
2023-01-29T06:23:42.890Z,1.6
2023-01-29T06:25:44.239Z,1.6
2023-01-29T06:27:45.566Z,1.6
2023-01-29T06:29:46.794Z,1.6
2023-01-29T06:31:48.290Z,1.6
2023-01-29T06:33:49.506Z,1.6
2023-01-29T06:48:02.328Z,1.7
2023-01-29T06:50:03.582Z,1.6
2023-01-29T06:52:08.331Z,1.7
2023-01-29T06:54:09.567Z,1.7
2023-01-29T06:56:10.851Z,1.7
2023-01-29T06:57:13.143Z,1.7
2023-01-29T06:59:14.469Z,1.7
2023-01-29T07:01:33.427Z,1.7
2023-01-29T07:03:17.020Z,1.7
2023-01-29T07:07:23.107Z,1.7
2023-01-29T07:09:24.409Z,1.7
2023-01-29T07:11:25.797Z,1.7
2023-01-29T07:13:27.138Z,1.7
2023-01-29T07:15:28.399Z,1.7
2023-01-29T07:17:29.710Z,1.7
2023-01-29T07:19:34.321Z,1.7
2023-01-29T07:21:35.599Z,1.8
2023-01-29T07:23:36.863Z,1.8
2023-01-29T07:25:38.138Z,1.8
2023-01-29T07:27:39.389Z,1.8
2023-01-29T07:29:40.705Z,1.8
2023-01-29T07:37:49.372Z,1.8
2023-01-29T07:39:50.812Z,1.8
2023-01-29T07:41:51.991Z,1.8
2023-01-29T07:43:53.365Z,1.8
2023-01-29T07:45:54.871Z,1.8
2023-01-29T07:47:59.406Z,1.8
2023-01-29T07:50:00.815Z,1.8
2023-01-29T07:52:02.146Z,1.8
2023-01-29T07:53:04.512Z,1.8
2023-01-29T07:55:05.802Z,1.9
2023-01-29T08:01:13.202Z,1.9
2023-01-29T08:07:17.026Z,2
2023-01-29T08:09:18.377Z,2
2023-01-29T08:11:19.661Z,2
2023-01-29T08:15:25.585Z,2.1
2023-01-29T08:17:26.859Z,2.1
2023-01-29T08:19:28.157Z,2.1
2023-01-29T08:21:29.378Z,2.1
2023-01-29T08:25:32.001Z,2.2
2023-01-29T08:27:33.211Z,2.2
2023-01-29T08:29:38.005Z,2.3
2023-01-29T08:31:39.312Z,2.3
2023-01-29T08:33:40.551Z,2.3
2023-01-29T08:35:41.838Z,2.3
2023-01-29T08:37:43.179Z,2.4
2023-01-29T08:39:44.474Z,2.4
2023-01-29T08:47:52.958Z,2.5
2023-01-29T08:48:55.255Z,2.5
2023-01-29T08:50:56.548Z,2.5
2023-01-29T08:52:57.796Z,2.5
2023-01-29T08:54:59.049Z,2.6
2023-01-29T08:57:03.621Z,2.6
2023-01-29T08:59:04.915Z,2.6
2023-01-29T09:01:06.231Z,2.6
2023-01-29T09:03:07.480Z,2.6
2023-01-29T09:05:08.754Z,2.6
2023-01-29T09:07:10.129Z,2.6
2023-01-29T09:09:11.406Z,2.6
2023-01-29T09:11:16.104Z,2.6
2023-01-29T09:13:17.260Z,2.6
2023-01-29T09:15:18.869Z,2.7
2023-01-29T09:17:19.822Z,2.7
2023-01-29T09:19:21.119Z,2.7
2023-01-29T09:21:22.526Z,2.7
2023-01-29T09:23:23.728Z,2.8
2023-01-29T09:25:28.284Z,2.8
2023-01-29T09:27:29.548Z,2.8
2023-01-29T09:29:30.878Z,2.9
2023-01-29T09:31:32.504Z,2.9
2023-01-29T09:33:33.568Z,2.9
2023-01-29T09:35:34.872Z,2.9
2023-01-29T09:37:36.170Z,2.9
2023-01-29T09:39:40.887Z,2.9
2023-01-29T09:43:43.514Z,3
2023-01-29T09:48:01.514Z,3.1
2023-01-29T09:50:02.804Z,3.1
2023-01-29T09:52:07.396Z,3.1
2023-01-29T09:54:08.690Z,3.2
2023-01-29T09:56:09.955Z,3.2
2023-01-29T09:58:11.267Z,3.2
2023-01-29T10:00:12.585Z,3.3
2023-01-29T10:02:14.047Z,3.3
2023-01-29T10:04:15.276Z,3.3
2023-01-29T10:06:19.764Z,3.3
2023-01-29T10:08:21.077Z,3.3
2023-01-29T10:10:22.407Z,3.4
2023-01-29T10:12:23.777Z,3.4
2023-01-29T10:16:26.357Z,3.4
2023-01-29T10:20:32.277Z,3.4
2023-01-29T10:22:33.575Z,3.4
2023-01-29T10:24:34.858Z,3.4
2023-01-29T10:26:36.279Z,3.4
2023-01-29T10:30:38.747Z,3.4
2023-01-29T10:32:40.018Z,3.4
2023-01-29T10:36:45.976Z,3.4
2023-01-29T10:39:49.549Z,3.4
2023-01-29T10:41:52.530Z,3.4
2023-01-29T10:45:53.985Z,3.4
2023-01-29T10:47:58.568Z,3.4
2023-01-29T10:49:59.892Z,3.3
2023-01-29T10:52:02.855Z,3.4
2023-01-29T10:58:06.691Z,3.4
2023-01-29T11:00:08.058Z,3.4
2023-01-29T11:02:12.746Z,3.4
2023-01-29T11:04:14.050Z,3.4
2023-01-29T11:06:15.325Z,3.4
2023-01-29T11:08:16.650Z,3.4
2023-01-29T11:10:18.366Z,3.4
2023-01-29T11:16:25.171Z,3.5
2023-01-29T11:18:26.452Z,3.5
2023-01-29T11:20:27.777Z,3.4
2023-01-29T11:22:29.084Z,3.4
2023-01-29T11:24:30.369Z,3.5
2023-01-29T11:26:31.712Z,3.4
2023-01-29T11:28:32.971Z,3.4
2023-01-29T11:30:37.628Z,3.4
2023-01-29T11:32:38.875Z,3.4
2023-01-29T11:34:40.172Z,3.5
2023-01-29T11:37:43.771Z,3.4
2023-01-29T11:39:45.117Z,3.4
2023-01-29T11:41:46.475Z,3.4
2023-01-29T11:45:52.441Z,3.5
2023-01-29T11:47:53.769Z,3.4
2023-01-29T11:49:55.060Z,3.5
2023-01-29T11:51:56.371Z,3.5
2023-01-29T11:53:57.722Z,3.4
2023-01-29T11:55:58.991Z,3.4
2023-01-29T11:58:03.606Z,3.5
2023-01-29T12:00:04.913Z,3.5
2023-01-29T12:02:06.204Z,3.5
2023-01-29T12:04:07.505Z,3.4
2023-01-29T12:06:08.889Z,3.4
2023-01-29T12:08:10.118Z,3.5
2023-01-29T12:10:11.456Z,3.5
2023-01-29T12:12:16.074Z,3.5
2023-01-29T12:14:17.326Z,3.5
2023-01-29T12:16:18.685Z,3.6
2023-01-29T12:18:19.927Z,3.5
2023-01-29T12:22:22.547Z,3.5
2023-01-29T12:24:23.810Z,3.5
2023-01-29T12:26:28.500Z,3.5
2023-01-29T12:31:33.506Z,3.4
2023-01-29T12:33:34.909Z,3.4
2023-01-29T12:35:36.146Z,3.5
2023-01-29T12:37:37.477Z,3.5
2023-01-29T12:39:42.081Z,3.4
2023-01-29T12:41:45.931Z,3.3
2023-01-29T12:43:44.691Z,3.4
2023-01-29T12:45:45.987Z,3.5
2023-01-29T12:47:47.303Z,3.4
2023-01-29T12:49:48.626Z,3.4
2023-01-29T12:51:49.907Z,3.2
2023-01-29T12:53:54.479Z,3.3
2023-01-29T12:55:55.772Z,3.3
2023-01-29T12:57:57.083Z,3.2
2023-01-29T12:59:58.373Z,3.3
2023-01-29T13:04:00.978Z,3.2
2023-01-29T13:08:06.912Z,3.1
2023-01-29T13:10:08.199Z,3.1
2023-01-29T13:12:09.524Z,3.1
2023-01-29T13:14:10.819Z,3.1
2023-01-29T13:16:12.197Z,3
2023-01-29T13:18:13.400Z,3
2023-01-29T13:20:15.113Z,3.1
2023-01-29T13:22:19.349Z,3
2023-01-29T13:24:20.660Z,3
2023-01-29T13:26:22.009Z,3.1
2023-01-29T13:30:52.365Z,3.1
2023-01-29T13:32:53.602Z,3.1
2023-01-29T13:34:58.280Z,3.1
2023-01-29T13:36:59.582Z,3.1
2023-01-29T13:39:00.858Z,3.2
2023-01-29T13:43:03.453Z,3.2
2023-01-29T13:45:04.735Z,3.2
2023-01-29T13:47:06.046Z,3.3
2023-01-29T13:49:10.754Z,3.3
2023-01-29T13:51:12.073Z,3.4
2023-01-29T13:53:13.331Z,3.4
2023-01-29T13:55:14.901Z,3.5
2023-01-29T13:57:15.963Z,3.4
2023-01-29T13:59:17.251Z,3.5
2023-01-29T14:01:18.702Z,3.5
2023-01-29T14:03:23.311Z,3.6
2023-01-29T14:05:24.601Z,3.6
2023-01-29T14:07:25.988Z,3.6
2023-01-29T14:09:27.278Z,3.7
2023-01-29T14:11:28.593Z,3.7
2023-01-29T14:15:31.481Z,3.7
2023-01-29T14:17:36.083Z,3.8
2023-01-29T14:19:37.381Z,3.8
2023-01-29T14:21:38.699Z,3.8
2023-01-29T14:22:40.985Z,3.8
2023-01-29T14:24:42.295Z,3.8
2023-01-29T14:26:43.763Z,3.8
2023-01-29T14:28:44.939Z,3.8
2023-01-29T14:30:49.784Z,3.8
2023-01-29T14:32:51.106Z,3.8
2023-01-29T14:34:52.377Z,3.8
2023-01-29T14:36:53.670Z,3.8
2023-01-29T14:38:55.011Z,3.7
2023-01-29T14:40:56.316Z,3.8
2023-01-29T14:42:57.645Z,3.8
2023-01-29T14:45:02.242Z,3.8
2023-01-29T14:47:03.576Z,3.7
2023-01-29T14:49:04.979Z,3.8
2023-01-29T14:51:07.951Z,3.7
2023-01-29T14:57:10.226Z,3.7
2023-01-29T14:59:14.898Z,3.7
2023-01-29T15:01:16.234Z,3.7
2023-01-29T15:03:17.554Z,3.7
2023-01-29T15:05:19.094Z,3.7
2023-01-29T15:07:20.169Z,3.7
2023-01-29T15:09:23.219Z,3.7
2023-01-29T15:11:22.770Z,3.7
2023-01-29T15:13:27.419Z,3.7
2023-01-29T15:15:28.794Z,3.7
2023-01-29T15:17:30.042Z,3.7
2023-01-29T15:18:32.359Z,3.7
2023-01-29T15:20:33.644Z,3.7
2023-01-29T15:22:34.986Z,3.7
2023-01-29T15:24:36.305Z,3.7
2023-01-29T15:28:43.537Z,3.7
2023-01-29T15:30:43.676Z,3.7
2023-01-29T15:32:44.859Z,3.6
2023-01-29T15:34:46.146Z,3.6
2023-01-29T15:40:53.493Z,3.6
2023-01-29T15:44:56.093Z,3.6
2023-01-29T15:53:01.332Z,3.5
2023-01-29T15:55:05.958Z,3.5
2023-01-29T15:57:07.254Z,3.5
2023-01-29T15:59:09.819Z,3.5
2023-01-29T16:01:09.843Z,3.5
2023-01-29T16:03:11.175Z,3.5
2023-01-29T16:05:12.578Z,3.5
2023-01-29T16:07:13.959Z,3.4
2023-01-29T16:09:18.573Z,3.4
2023-01-29T16:11:19.866Z,3.4
2023-01-29T16:13:21.210Z,3.5
2023-01-29T16:14:23.598Z,3.5
2023-01-29T16:16:24.987Z,3.5
2023-01-29T16:18:26.187Z,3.4
2023-01-29T16:20:27.511Z,3.5
2023-01-29T16:22:32.270Z,3.4
2023-01-29T16:24:33.404Z,3.4
2023-01-29T16:26:34.723Z,3.4
2023-01-29T16:28:36.040Z,3.4
2023-01-29T16:30:37.347Z,3.4
2023-01-29T16:32:38.670Z,3.3
2023-01-29T16:34:39.993Z,3.3
2023-01-29T16:36:44.537Z,3.3
2023-01-29T16:38:45.850Z,3.2
2023-01-29T16:40:47.169Z,3.2
2023-01-29T16:48:53.877Z,2.9
2023-01-29T16:50:58.493Z,2.8
2023-01-29T16:59:03.787Z,2.6
2023-01-29T17:03:06.518Z,2.6
2023-01-29T17:05:10.993Z,2.6
2023-01-29T17:07:12.325Z,2.6
2023-01-29T17:09:13.645Z,2.6
2023-01-29T17:11:30.462Z,2.7
2023-01-29T17:15:33.078Z,2.8
2023-01-29T17:17:37.736Z,2.9
2023-01-29T17:21:40.455Z,2.7
2023-01-29T17:25:43.016Z,2.5
2023-01-29T17:27:44.367Z,2.5
2023-01-29T17:29:45.749Z,2.5
2023-01-29T17:31:50.531Z,2.6
2023-01-29T17:33:51.735Z,2.7
2023-01-29T17:35:53.019Z,2.7
2023-01-29T17:37:54.309Z,2.7
2023-01-29T17:39:55.627Z,2.7
2023-01-29T17:41:56.975Z,2.7
2023-01-29T17:46:02.959Z,2.8
2023-01-29T17:48:04.245Z,2.8
2023-01-29T17:52:06.848Z,2.8
2023-01-29T17:54:08.193Z,2.8
2023-01-29T17:56:09.525Z,2.8
2023-01-29T17:58:10.781Z,2.8
2023-01-29T18:00:15.558Z,2.8
2023-01-29T18:02:29.459Z,2.8
2023-01-29T18:04:18.306Z,2.9
2023-01-29T18:07:21.873Z,2.9
2023-01-29T18:09:23.186Z,2.9
2023-01-29T18:11:24.484Z,2.9
2023-01-29T18:15:30.390Z,3
2023-01-29T18:17:31.689Z,3
2023-01-29T18:19:32.959Z,3
2023-01-29T18:21:34.249Z,3
2023-01-29T18:23:35.567Z,3.1
2023-01-29T18:25:36.876Z,3.1
2023-01-29T18:29:42.787Z,3.1
2023-01-29T18:31:44.112Z,3.1
2023-01-29T18:33:45.399Z,3.1
2023-01-29T18:35:46.698Z,3.2
2023-01-29T18:37:47.989Z,3.1
2023-01-29T18:39:49.269Z,3.2
2023-01-29T18:41:53.880Z,3.2
2023-01-29T18:47:57.772Z,3.2
2023-01-29T18:49:59.155Z,3.1
2023-01-29T18:52:00.447Z,3.2
2023-01-29T18:54:01.744Z,3.2
2023-01-29T18:56:06.332Z,3.2
2023-01-29T18:58:26.503Z,3.2
2023-01-29T19:00:09.250Z,3.2
2023-01-29T19:03:12.660Z,3.3
2023-01-29T19:05:14.123Z,3.3
2023-01-29T19:07:15.280Z,3.2
2023-01-29T19:09:19.863Z,3.3
2023-01-29T19:11:21.159Z,3.3
2023-01-29T19:13:22.476Z,3.3
2023-01-29T19:15:23.790Z,3.4
2023-01-29T19:17:25.047Z,3.4
2023-01-29T19:19:26.393Z,3.4
2023-01-29T19:21:27.643Z,3.5
2023-01-29T19:23:32.328Z,3.5
2023-01-29T19:25:33.635Z,3.5
2023-01-29T19:27:34.907Z,3.5
2023-01-29T19:29:36.218Z,3.5
2023-01-29T19:31:37.575Z,3.5
2023-01-29T19:33:38.874Z,3.5
2023-01-29T19:35:40.471Z,3.5
2023-01-29T19:37:44.851Z,3.5
2023-01-29T19:39:46.160Z,3.5
2023-01-29T19:43:48.881Z,3.6
2023-01-29T19:47:52.143Z,3.6
2023-01-29T19:49:53.705Z,3.6
2023-01-29T19:51:58.323Z,3.6
2023-01-29T19:57:03.186Z,3.6
2023-01-29T19:59:04.501Z,3.6
2023-01-29T20:01:05.912Z,3.6
2023-01-29T20:03:07.132Z,3.6
2023-01-29T20:07:13.095Z,3.7
2023-01-29T20:09:14.414Z,3.7
2023-01-29T20:11:15.835Z,3.7
2023-01-29T20:13:17.024Z,3.7
2023-01-29T20:15:18.324Z,3.7
2023-01-29T20:17:19.618Z,3.7
2023-01-29T20:19:24.272Z,3.8
2023-01-29T20:21:25.561Z,3.8
2023-01-29T20:23:37.196Z,3.8
2023-01-29T20:25:28.174Z,3.7
2023-01-29T20:27:29.437Z,3.8
2023-01-29T20:33:39.058Z,3.8
2023-01-29T20:39:40.554Z,3.8
2023-01-29T20:41:41.903Z,3.9
2023-01-29T20:43:43.175Z,3.8
2023-01-29T20:45:44.532Z,3.8
2023-01-29T20:47:49.198Z,3.9
2023-01-29T20:49:50.611Z,3.9
2023-01-29T20:51:52.059Z,3.9
2023-01-29T20:54:15.003Z,3.9
2023-01-29T20:56:16.302Z,3.9
2023-01-29T20:58:17.627Z,3.9
2023-01-29T21:00:22.201Z,3.9
2023-01-29T21:02:23.586Z,4
2023-01-29T21:04:24.905Z,4
2023-01-29T21:06:26.139Z,4
2023-01-29T21:08:27.506Z,3.9
2023-01-29T21:10:28.857Z,4
2023-01-29T21:12:30.097Z,4
2023-01-29T21:14:34.708Z,4.1
2023-01-29T21:16:36.040Z,4.1
2023-01-29T21:20:38.667Z,4.1
2023-01-29T21:30:48.550Z,4.2
2023-01-29T21:32:49.947Z,4.1
2023-01-29T21:34:52.569Z,4.1
2023-01-29T21:38:53.816Z,4.2
2023-01-29T21:40:55.185Z,4.2
2023-01-29T21:48:04.939Z,4.2
2023-01-29T21:50:06.239Z,4.2
2023-01-29T21:52:07.552Z,4.2
2023-01-29T21:54:08.836Z,4.3
2023-01-29T21:56:13.471Z,4.3
2023-01-29T21:58:14.923Z,4.3
2023-01-29T22:00:16.352Z,4.3
2023-01-29T22:02:17.513Z,4.3
2023-01-29T22:04:18.712Z,4.2
2023-01-29T22:12:27.493Z,4.4
2023-01-29T22:20:32.750Z,4.4
2023-01-29T22:22:34.088Z,4.5
2023-01-29T22:32:45.555Z,4.6
2023-01-29T22:34:46.832Z,4.5
2023-01-29T22:38:52.765Z,4.6
2023-01-29T22:40:54.096Z,4.6
2023-01-29T22:42:55.416Z,4.5
2023-01-29T22:43:57.812Z,4.6
2023-01-29T22:48:00.438Z,4.7
2023-01-29T22:50:01.797Z,4.6
2023-01-29T22:52:06.358Z,4.5
2023-01-29T22:54:07.678Z,4.5
2023-01-29T22:56:09.031Z,4.5
2023-01-29T22:58:10.313Z,4.6
2023-01-29T23:00:11.652Z,4.5
2023-01-29T23:02:12.982Z,4.5
2023-01-29T23:04:14.284Z,4.5
2023-01-29T23:12:22.867Z,4.5
2023-01-29T23:14:24.261Z,4.6
2023-01-29T23:16:27.754Z,4.5
2023-01-29T23:18:26.881Z,4.6
2023-01-29T23:20:31.488Z,4.7
2023-01-29T23:22:32.817Z,4.6
2023-01-29T23:24:34.132Z,4.6
2023-01-29T23:26:35.498Z,4.7
2023-01-29T23:28:36.786Z,4.7
2023-01-29T23:30:38.131Z,4.7
2023-01-29T23:32:39.492Z,4.7
2023-01-29T23:34:44.153Z,4.6
2023-01-29T23:36:45.469Z,4.6
2023-01-29T23:38:46.803Z,4.7
2023-01-29T23:39:49.092Z,4.7
2023-01-29T23:41:50.451Z,4.7
2023-01-29T23:43:51.828Z,4.8
2023-01-29T23:45:53.184Z,4.8
2023-01-29T23:56:03.084Z,4.9
2023-01-29T23:58:04.409Z,5
